sensor_id;sensor_type;location;lat;lon;timestamp;P1;durP1;ratioP1;P2;durP2;ratioP2
78960;SDS011;68362;45.970;12.646;2023-05-13T00:00:21;0.85;;;0.68;;
78960;SDS011;68362;45.970;12.646;2023-05-13T00:01:42;2.30;;;0.90;;
78960;SDS011;68362;45.970;12.646;2023-05-13T00:02:44;1.52;;;0.75;;
78960;SDS011;68362;45.970;12.646;2023-05-13T00:03:47;1.20;;;0.70;;
78960;SDS011;68362;45.970;12.646;2023-05-13T00:04:49;1.08;;;0.98;;
78960;SDS011;68362;45.970;12.646;2023-05-13T00:05:51;1.02;;;0.75;;
78960;SDS011;68362;45.970;12.646;2023-05-13T00:06:53;1.30;;;0.75;;
78960;SDS011;68362;45.970;12.646;2023-05-13T00:07:55;1.40;;;0.90;;
78960;SDS011;68362;45.970;12.646;2023-05-13T00:08:58;1.85;;;1.00;;
78960;SDS011;68362;45.970;12.646;2023-05-13T00:11:02;1.20;;;0.90;;
78960;SDS011;68362;45.970;12.646;2023-05-13T00:12:05;1.52;;;0.70;;
78960;SDS011;68362;45.970;12.646;2023-05-13T00:13:07;1.25;;;0.80;;
78960;SDS011;68362;45.970;12.646;2023-05-13T00:14:09;3.35;;;0.70;;
78960;SDS011;68362;45.970;12.646;2023-05-13T00:16:14;1.50;;;0.73;;
78960;SDS011;68362;45.970;12.646;2023-05-13T00:17:16;1.20;;;0.80;;
78960;SDS011;68362;45.970;12.646;2023-05-13T00:18:18;0.98;;;0.70;;
78960;SDS011;68362;45.970;12.646;2023-05-13T00:19:20;1.80;;;0.90;;
78960;SDS011;68362;45.970;12.646;2023-05-13T00:20:22;1.40;;;0.95;;
78960;SDS011;68362;45.970;12.646;2023-05-13T00:21:24;0.80;;;0.68;;
78960;SDS011;68362;45.970;12.646;2023-05-13T00:22:26;0.98;;;0.68;;
78960;SDS011;68362;45.970;12.646;2023-05-13T00:23:28;1.02;;;0.60;;
78960;SDS011;68362;45.970;12.646;2023-05-13T00:24:30;2.47;;;1.00;;
78960;SDS011;68362;45.970;12.646;2023-05-13T00:25:33;1.20;;;0.88;;
78960;SDS011;68362;45.970;12.646;2023-05-13T00:26:35;2.55;;;1.23;;
78960;SDS011;68362;45.970;12.646;2023-05-13T00:27:37;1.67;;;1.05;;
78960;SDS011;68362;45.970;12.646;2023-05-13T00:28:39;2.78;;;0.77;;
78960;SDS011;68362;45.970;12.646;2023-05-13T00:29:41;0.98;;;0.70;;
78960;SDS011;68362;45.970;12.646;2023-05-13T00:30:43;2.97;;;0.80;;
78960;SDS011;68362;45.970;12.646;2023-05-13T00:31:46;1.10;;;0.90;;
78960;SDS011;68362;45.970;12.646;2023-05-13T00:32:48;1.00;;;0.68;;
78960;SDS011;68362;45.970;12.646;2023-05-13T00:33:50;2.05;;;0.68;;
78960;SDS011;68362;45.970;12.646;2023-05-13T00:34:52;1.73;;;0.93;;
78960;SDS011;68362;45.970;12.646;2023-05-13T00:35:54;1.10;;;0.73;;
78960;SDS011;68362;45.970;12.646;2023-05-13T00:36:56;1.30;;;0.90;;
78960;SDS011;68362;45.970;12.646;2023-05-13T00:37:58;1.27;;;0.90;;
78960;SDS011;68362;45.970;12.646;2023-05-13T00:39:00;3.80;;;1.05;;
78960;SDS011;68362;45.970;12.646;2023-05-13T00:40:02;2.92;;;0.90;;
78960;SDS011;68362;45.970;12.646;2023-05-13T00:41:05;3.33;;;0.90;;
78960;SDS011;68362;45.970;12.646;2023-05-13T00:42:07;1.13;;;0.70;;
78960;SDS011;68362;45.970;12.646;2023-05-13T00:43:11;1.88;;;1.10;;
78960;SDS011;68362;45.970;12.646;2023-05-13T00:44:13;4.85;;;1.60;;
78960;SDS011;68362;45.970;12.646;2023-05-13T00:45:16;2.00;;;1.23;;
78960;SDS011;68362;45.970;12.646;2023-05-13T00:46:18;3.40;;;1.35;;
78960;SDS011;68362;45.970;12.646;2023-05-13T00:47:20;4.90;;;1.90;;
78960;SDS011;68362;45.970;12.646;2023-05-13T00:48:22;5.82;;;2.33;;
78960;SDS011;68362;45.970;12.646;2023-05-13T00:49:25;5.75;;;2.42;;
78960;SDS011;68362;45.970;12.646;2023-05-13T00:50:27;3.75;;;1.98;;
78960;SDS011;68362;45.970;12.646;2023-05-13T00:51:30;3.65;;;2.40;;
78960;SDS011;68362;45.970;12.646;2023-05-13T00:52:33;5.65;;;2.47;;
78960;SDS011;68362;45.970;12.646;2023-05-13T00:53:36;6.85;;;2.17;;
78960;SDS011;68362;45.970;12.646;2023-05-13T00:54:39;3.58;;;2.30;;
78960;SDS011;68362;45.970;12.646;2023-05-13T00:55:42;4.82;;;1.77;;
78960;SDS011;68362;45.970;12.646;2023-05-13T00:56:44;4.63;;;1.50;;
78960;SDS011;68362;45.970;12.646;2023-05-13T00:57:47;1.40;;;1.10;;
78960;SDS011;68362;45.970;12.646;2023-05-13T00:58:49;1.73;;;1.30;;
78960;SDS011;68362;45.970;12.646;2023-05-13T00:59:51;1.50;;;1.17;;
78960;SDS011;68362;45.970;12.646;2023-05-13T01:01:16;2.38;;;0.93;;
78960;SDS011;68362;45.970;12.646;2023-05-13T01:02:29;2.22;;;1.20;;
78960;SDS011;68362;45.970;12.646;2023-05-13T01:07:48;2.15;;;1.25;;
78960;SDS011;68362;45.970;12.646;2023-05-13T01:10:33;1.73;;;1.33;;
78960;SDS011;68362;45.970;12.646;2023-05-13T01:12:45;2.45;;;1.50;;
78960;SDS011;68362;45.970;12.646;2023-05-13T01:13:48;1.70;;;1.40;;
78960;SDS011;68362;45.970;12.646;2023-05-13T01:15:05;1.67;;;1.23;;
78960;SDS011;68362;45.970;12.646;2023-05-13T01:16:20;1.45;;;1.25;;
78960;SDS011;68362;45.970;12.646;2023-05-13T01:17:30;2.72;;;1.58;;
78960;SDS011;68362;45.970;12.646;2023-05-13T01:18:36;5.22;;;1.30;;
78960;SDS011;68362;45.970;12.646;2023-05-13T01:19:51;2.92;;;1.85;;
78960;SDS011;68362;45.970;12.646;2023-05-13T01:20:56;2.22;;;1.65;;
78960;SDS011;68362;45.970;12.646;2023-05-13T01:21:59;3.42;;;1.88;;
78960;SDS011;68362;45.970;12.646;2023-05-13T01:23:01;2.72;;;1.55;;
78960;SDS011;68362;45.970;12.646;2023-05-13T01:24:05;2.28;;;1.30;;
78960;SDS011;68362;45.970;12.646;2023-05-13T01:25:07;4.40;;;1.50;;
78960;SDS011;68362;45.970;12.646;2023-05-13T01:26:09;2.53;;;1.52;;
78960;SDS011;68362;45.970;12.646;2023-05-13T01:27:11;3.30;;;1.50;;
78960;SDS011;68362;45.970;12.646;2023-05-13T01:28:14;2.65;;;1.50;;
78960;SDS011;68362;45.970;12.646;2023-05-13T01:29:16;3.85;;;1.42;;
78960;SDS011;68362;45.970;12.646;2023-05-13T01:30:18;4.35;;;1.50;;
78960;SDS011;68362;45.970;12.646;2023-05-13T01:31:21;4.65;;;1.48;;
78960;SDS011;68362;45.970;12.646;2023-05-13T01:32:24;3.03;;;1.45;;
78960;SDS011;68362;45.970;12.646;2023-05-13T01:33:27;2.45;;;1.50;;
78960;SDS011;68362;45.970;12.646;2023-05-13T01:34:30;1.70;;;1.30;;
78960;SDS011;68362;45.970;12.646;2023-05-13T01:35:34;3.03;;;1.65;;
78960;SDS011;68362;45.970;12.646;2023-05-13T01:36:37;1.85;;;1.35;;
78960;SDS011;68362;45.970;12.646;2023-05-13T01:37:40;3.00;;;1.60;;
78960;SDS011;68362;45.970;12.646;2023-05-13T01:38:43;1.80;;;1.20;;
78960;SDS011;68362;45.970;12.646;2023-05-13T01:39:46;2.08;;;1.50;;
78960;SDS011;68362;45.970;12.646;2023-05-13T01:40:48;1.80;;;1.30;;
78960;SDS011;68362;45.970;12.646;2023-05-13T01:42:53;3.35;;;1.20;;
78960;SDS011;68362;45.970;12.646;2023-05-13T01:43:55;3.10;;;1.13;;
78960;SDS011;68362;45.970;12.646;2023-05-13T01:44:57;2.70;;;1.30;;
78960;SDS011;68362;45.970;12.646;2023-05-13T01:45:59;1.70;;;1.40;;
78960;SDS011;68362;45.970;12.646;2023-05-13T01:47:02;2.20;;;1.33;;
78960;SDS011;68362;45.970;12.646;2023-05-13T01:48:04;2.13;;;1.15;;
78960;SDS011;68362;45.970;12.646;2023-05-13T01:49:07;3.63;;;1.45;;
78960;SDS011;68362;45.970;12.646;2023-05-13T01:50:10;4.68;;;1.25;;
78960;SDS011;68362;45.970;12.646;2023-05-13T01:51:12;3.03;;;1.40;;
78960;SDS011;68362;45.970;12.646;2023-05-13T01:52:14;3.47;;;1.30;;
78960;SDS011;68362;45.970;12.646;2023-05-13T01:53:17;3.13;;;1.35;;
78960;SDS011;68362;45.970;12.646;2023-05-13T01:54:19;2.67;;;1.60;;
78960;SDS011;68362;45.970;12.646;2023-05-13T01:55:22;2.45;;;1.48;;
78960;SDS011;68362;45.970;12.646;2023-05-13T01:56:24;1.85;;;1.38;;
78960;SDS011;68362;45.970;12.646;2023-05-13T01:57:27;2.55;;;1.40;;
78960;SDS011;68362;45.970;12.646;2023-05-13T01:58:28;3.13;;;1.52;;
78960;SDS011;68362;45.970;12.646;2023-05-13T01:59:30;3.20;;;1.80;;
78960;SDS011;68362;45.970;12.646;2023-05-13T02:00:32;3.53;;;1.75;;
78960;SDS011;68362;45.970;12.646;2023-05-13T02:01:35;3.17;;;1.70;;
78960;SDS011;68362;45.970;12.646;2023-05-13T02:02:37;5.63;;;2.10;;
78960;SDS011;68362;45.970;12.646;2023-05-13T02:03:39;2.35;;;1.60;;
78960;SDS011;68362;45.970;12.646;2023-05-13T02:04:41;2.83;;;1.52;;
78960;SDS011;68362;45.970;12.646;2023-05-13T02:05:45;3.80;;;2.00;;
78960;SDS011;68362;45.970;12.646;2023-05-13T02:06:47;5.85;;;2.55;;
78960;SDS011;68362;45.970;12.646;2023-05-13T02:07:49;2.65;;;1.85;;
78960;SDS011;68362;45.970;12.646;2023-05-13T02:08:51;2.40;;;1.98;;
78960;SDS011;68362;45.970;12.646;2023-05-13T02:09:54;2.58;;;2.38;;
78960;SDS011;68362;45.970;12.646;2023-05-13T02:11:00;4.55;;;2.30;;
78960;SDS011;68362;45.970;12.646;2023-05-13T02:12:02;2.63;;;2.17;;
78960;SDS011;68362;45.970;12.646;2023-05-13T02:13:04;4.43;;;2.47;;
78960;SDS011;68362;45.970;12.646;2023-05-13T02:14:07;6.72;;;2.33;;
78960;SDS011;68362;45.970;12.646;2023-05-13T02:15:09;3.20;;;2.25;;
78960;SDS011;68362;45.970;12.646;2023-05-13T02:16:13;3.40;;;2.10;;
78960;SDS011;68362;45.970;12.646;2023-05-13T02:17:16;4.75;;;2.50;;
78960;SDS011;68362;45.970;12.646;2023-05-13T02:18:19;9.55;;;2.28;;
78960;SDS011;68362;45.970;12.646;2023-05-13T02:19:21;3.47;;;2.10;;
78960;SDS011;68362;45.970;12.646;2023-05-13T02:20:23;3.20;;;1.98;;
78960;SDS011;68362;45.970;12.646;2023-05-13T02:21:26;2.72;;;2.22;;
78960;SDS011;68362;45.970;12.646;2023-05-13T02:22:29;4.05;;;2.58;;
78960;SDS011;68362;45.970;12.646;2023-05-13T02:23:31;3.17;;;2.22;;
78960;SDS011;68362;45.970;12.646;2023-05-13T02:24:33;4.90;;;2.60;;
78960;SDS011;68362;45.970;12.646;2023-05-13T02:25:36;3.60;;;2.75;;
78960;SDS011;68362;45.970;12.646;2023-05-13T02:26:39;3.22;;;2.22;;
78960;SDS011;68362;45.970;12.646;2023-05-13T02:27:42;3.30;;;2.47;;
78960;SDS011;68362;45.970;12.646;2023-05-13T02:28:44;5.45;;;2.60;;
78960;SDS011;68362;45.970;12.646;2023-05-13T02:29:46;3.47;;;2.42;;
78960;SDS011;68362;45.970;12.646;2023-05-13T02:30:48;4.43;;;2.67;;
78960;SDS011;68362;45.970;12.646;2023-05-13T02:31:50;3.08;;;2.67;;
78960;SDS011;68362;45.970;12.646;2023-05-13T02:32:52;3.83;;;2.40;;
78960;SDS011;68362;45.970;12.646;2023-05-13T02:33:54;3.53;;;2.50;;
78960;SDS011;68362;45.970;12.646;2023-05-13T02:34:57;3.28;;;2.55;;
78960;SDS011;68362;45.970;12.646;2023-05-13T02:36:02;10.90;;;2.83;;
78960;SDS011;68362;45.970;12.646;2023-05-13T02:37:04;3.70;;;2.72;;
78960;SDS011;68362;45.970;12.646;2023-05-13T02:38:09;4.38;;;2.60;;
78960;SDS011;68362;45.970;12.646;2023-05-13T02:39:12;6.22;;;3.25;;
78960;SDS011;68362;45.970;12.646;2023-05-13T02:40:14;3.50;;;2.40;;
78960;SDS011;68362;45.970;12.646;2023-05-13T02:41:16;3.63;;;2.60;;
78960;SDS011;68362;45.970;12.646;2023-05-13T02:42:18;3.70;;;3.17;;
78960;SDS011;68362;45.970;12.646;2023-05-13T02:43:20;3.90;;;2.50;;
78960;SDS011;68362;45.970;12.646;2023-05-13T02:44:24;4.32;;;2.65;;
78960;SDS011;68362;45.970;12.646;2023-05-13T02:45:26;4.57;;;3.22;;
78960;SDS011;68362;45.970;12.646;2023-05-13T02:46:28;3.67;;;2.83;;
78960;SDS011;68362;45.970;12.646;2023-05-13T02:47:30;4.40;;;2.67;;
78960;SDS011;68362;45.970;12.646;2023-05-13T02:48:32;3.47;;;2.83;;
78960;SDS011;68362;45.970;12.646;2023-05-13T02:49:34;5.03;;;2.78;;
78960;SDS011;68362;45.970;12.646;2023-05-13T02:50:36;3.67;;;2.47;;
78960;SDS011;68362;45.970;12.646;2023-05-13T02:51:38;3.55;;;2.90;;
78960;SDS011;68362;45.970;12.646;2023-05-13T02:52:40;5.00;;;2.50;;
78960;SDS011;68362;45.970;12.646;2023-05-13T02:53:42;3.20;;;2.35;;
78960;SDS011;68362;45.970;12.646;2023-05-13T02:54:44;3.35;;;2.90;;
78960;SDS011;68362;45.970;12.646;2023-05-13T02:55:47;3.85;;;2.92;;
78960;SDS011;68362;45.970;12.646;2023-05-13T02:56:49;3.92;;;2.65;;
78960;SDS011;68362;45.970;12.646;2023-05-13T02:57:51;4.53;;;2.55;;
78960;SDS011;68362;45.970;12.646;2023-05-13T02:58:53;4.38;;;3.28;;
78960;SDS011;68362;45.970;12.646;2023-05-13T02:59:55;3.60;;;2.70;;
78960;SDS011;68362;45.970;12.646;2023-05-13T03:00:57;3.90;;;2.53;;
78960;SDS011;68362;45.970;12.646;2023-05-13T03:01:59;2.88;;;2.55;;
78960;SDS011;68362;45.970;12.646;2023-05-13T03:03:01;4.20;;;2.83;;
78960;SDS011;68362;45.970;12.646;2023-05-13T03:04:03;4.10;;;2.83;;
78960;SDS011;68362;45.970;12.646;2023-05-13T03:05:05;3.80;;;3.10;;
78960;SDS011;68362;45.970;12.646;2023-05-13T03:06:08;3.55;;;2.70;;
78960;SDS011;68362;45.970;12.646;2023-05-13T03:07:10;3.75;;;3.08;;
78960;SDS011;68362;45.970;12.646;2023-05-13T03:08:12;4.88;;;3.63;;
78960;SDS011;68362;45.970;12.646;2023-05-13T03:09:14;3.42;;;2.70;;
78960;SDS011;68362;45.970;12.646;2023-05-13T03:10:16;3.28;;;2.80;;
78960;SDS011;68362;45.970;12.646;2023-05-13T03:11:18;4.40;;;3.00;;
78960;SDS011;68362;45.970;12.646;2023-05-13T03:12:20;5.38;;;3.30;;
78960;SDS011;68362;45.970;12.646;2023-05-13T03:13:22;6.40;;;2.90;;
78960;SDS011;68362;45.970;12.646;2023-05-13T03:14:24;3.30;;;2.50;;
78960;SDS011;68362;45.970;12.646;2023-05-13T03:15:26;4.07;;;2.85;;
78960;SDS011;68362;45.970;12.646;2023-05-13T03:16:28;4.85;;;3.33;;
78960;SDS011;68362;45.970;12.646;2023-05-13T03:17:30;3.75;;;3.00;;
78960;SDS011;68362;45.970;12.646;2023-05-13T03:18:34;4.00;;;2.92;;
78960;SDS011;68362;45.970;12.646;2023-05-13T03:19:37;3.67;;;2.85;;
78960;SDS011;68362;45.970;12.646;2023-05-13T03:20:39;5.20;;;3.50;;
78960;SDS011;68362;45.970;12.646;2023-05-13T03:21:41;3.70;;;2.97;;
78960;SDS011;68362;45.970;12.646;2023-05-13T03:22:43;5.68;;;3.47;;
78960;SDS011;68362;45.970;12.646;2023-05-13T03:23:45;4.50;;;3.28;;
78960;SDS011;68362;45.970;12.646;2023-05-13T03:24:48;5.28;;;3.30;;
78960;SDS011;68362;45.970;12.646;2023-05-13T03:25:50;4.05;;;3.28;;
78960;SDS011;68362;45.970;12.646;2023-05-13T03:26:51;4.70;;;3.30;;
78960;SDS011;68362;45.970;12.646;2023-05-13T03:27:54;4.43;;;2.83;;
78960;SDS011;68362;45.970;12.646;2023-05-13T03:28:56;4.05;;;3.10;;
78960;SDS011;68362;45.970;12.646;2023-05-13T03:29:58;4.75;;;3.65;;
78960;SDS011;68362;45.970;12.646;2023-05-13T03:31:00;4.25;;;2.92;;
78960;SDS011;68362;45.970;12.646;2023-05-13T03:32:02;4.50;;;3.40;;
78960;SDS011;68362;45.970;12.646;2023-05-13T03:33:05;5.30;;;3.53;;
78960;SDS011;68362;45.970;12.646;2023-05-13T03:34:07;4.45;;;3.00;;
78960;SDS011;68362;45.970;12.646;2023-05-13T03:35:09;4.88;;;3.55;;
78960;SDS011;68362;45.970;12.646;2023-05-13T03:36:11;3.40;;;2.80;;
78960;SDS011;68362;45.970;12.646;2023-05-13T03:37:13;3.63;;;2.85;;
78960;SDS011;68362;45.970;12.646;2023-05-13T03:38:15;3.72;;;3.03;;
78960;SDS011;68362;45.970;12.646;2023-05-13T03:39:17;5.38;;;2.85;;
78960;SDS011;68362;45.970;12.646;2023-05-13T03:40:19;5.22;;;3.35;;
78960;SDS011;68362;45.970;12.646;2023-05-13T03:41:22;5.05;;;3.30;;
78960;SDS011;68362;45.970;12.646;2023-05-13T03:42:24;3.75;;;3.00;;
78960;SDS011;68362;45.970;12.646;2023-05-13T03:43:27;3.53;;;2.97;;
78960;SDS011;68362;45.970;12.646;2023-05-13T03:44:29;3.95;;;3.13;;
78960;SDS011;68362;45.970;12.646;2023-05-13T03:45:31;4.13;;;3.00;;
78960;SDS011;68362;45.970;12.646;2023-05-13T03:46:33;3.88;;;2.97;;
78960;SDS011;68362;45.970;12.646;2023-05-13T03:47:35;3.45;;;2.53;;
78960;SDS011;68362;45.970;12.646;2023-05-13T03:48:39;4.03;;;3.00;;
78960;SDS011;68362;45.970;12.646;2023-05-13T03:49:42;4.25;;;2.88;;
78960;SDS011;68362;45.970;12.646;2023-05-13T03:50:44;3.40;;;2.40;;
78960;SDS011;68362;45.970;12.646;2023-05-13T03:51:46;3.25;;;2.80;;
78960;SDS011;68362;45.970;12.646;2023-05-13T03:52:48;3.10;;;2.40;;
78960;SDS011;68362;45.970;12.646;2023-05-13T03:53:50;4.05;;;2.45;;
78960;SDS011;68362;45.970;12.646;2023-05-13T03:54:52;2.38;;;1.92;;
78960;SDS011;68362;45.970;12.646;2023-05-13T03:55:54;4.55;;;2.92;;
78960;SDS011;68362;45.970;12.646;2023-05-13T03:56:56;2.97;;;2.00;;
78960;SDS011;68362;45.970;12.646;2023-05-13T03:57:58;3.28;;;2.05;;
78960;SDS011;68362;45.970;12.646;2023-05-13T03:59:00;3.60;;;2.47;;
78960;SDS011;68362;45.970;12.646;2023-05-13T04:00:02;2.42;;;1.90;;
78960;SDS011;68362;45.970;12.646;2023-05-13T04:01:05;2.40;;;1.88;;
78960;SDS011;68362;45.970;12.646;2023-05-13T04:02:08;2.83;;;1.95;;
78960;SDS011;68362;45.970;12.646;2023-05-13T04:03:10;2.25;;;1.70;;
78960;SDS011;68362;45.970;12.646;2023-05-13T04:04:13;1.98;;;1.70;;
78960;SDS011;68362;45.970;12.646;2023-05-13T04:05:15;2.30;;;1.70;;
78960;SDS011;68362;45.970;12.646;2023-05-13T04:06:18;2.53;;;1.30;;
78960;SDS011;68362;45.970;12.646;2023-05-13T04:07:20;3.00;;;1.70;;
78960;SDS011;68362;45.970;12.646;2023-05-13T04:08:22;2.55;;;1.45;;
78960;SDS011;68362;45.970;12.646;2023-05-13T04:09:24;2.38;;;1.85;;
78960;SDS011;68362;45.970;12.646;2023-05-13T04:10:26;2.53;;;1.65;;
78960;SDS011;68362;45.970;12.646;2023-05-13T04:11:29;2.75;;;1.83;;
78960;SDS011;68362;45.970;12.646;2023-05-13T04:12:32;1.73;;;1.27;;
78960;SDS011;68362;45.970;12.646;2023-05-13T04:13:34;2.10;;;1.60;;
78960;SDS011;68362;45.970;12.646;2023-05-13T04:14:36;2.80;;;1.67;;
78960;SDS011;68362;45.970;12.646;2023-05-13T04:15:39;4.38;;;1.80;;
78960;SDS011;68362;45.970;12.646;2023-05-13T04:16:40;2.40;;;1.10;;
78960;SDS011;68362;45.970;12.646;2023-05-13T04:17:43;1.63;;;1.27;;
78960;SDS011;68362;45.970;12.646;2023-05-13T04:18:45;2.60;;;1.60;;
78960;SDS011;68362;45.970;12.646;2023-05-13T04:19:47;3.30;;;1.30;;
78960;SDS011;68362;45.970;12.646;2023-05-13T04:20:52;2.88;;;1.38;;
78960;SDS011;68362;45.970;12.646;2023-05-13T04:21:54;2.25;;;1.67;;
78960;SDS011;68362;45.970;12.646;2023-05-13T04:22:56;1.67;;;1.48;;
78960;SDS011;68362;45.970;12.646;2023-05-13T04:23:58;2.47;;;1.70;;
78960;SDS011;68362;45.970;12.646;2023-05-13T04:25:00;2.70;;;1.60;;
78960;SDS011;68362;45.970;12.646;2023-05-13T04:26:02;1.83;;;1.40;;
78960;SDS011;68362;45.970;12.646;2023-05-13T04:27:05;1.90;;;1.50;;
78960;SDS011;68362;45.970;12.646;2023-05-13T04:28:07;4.38;;;1.52;;
78960;SDS011;68362;45.970;12.646;2023-05-13T04:29:09;2.55;;;1.63;;
78960;SDS011;68362;45.970;12.646;2023-05-13T04:30:11;3.72;;;1.63;;
78960;SDS011;68362;45.970;12.646;2023-05-13T04:31:14;2.70;;;1.55;;
78960;SDS011;68362;45.970;12.646;2023-05-13T04:32:16;1.83;;;1.58;;
78960;SDS011;68362;45.970;12.646;2023-05-13T04:33:22;2.03;;;1.40;;
78960;SDS011;68362;45.970;12.646;2023-05-13T04:34:24;5.40;;;2.00;;
78960;SDS011;68362;45.970;12.646;2023-05-13T04:35:26;2.10;;;1.65;;
78960;SDS011;68362;45.970;12.646;2023-05-13T04:36:29;1.73;;;1.23;;
78960;SDS011;68362;45.970;12.646;2023-05-13T04:37:31;1.73;;;1.42;;
78960;SDS011;68362;45.970;12.646;2023-05-13T04:38:33;2.55;;;1.48;;
78960;SDS011;68362;45.970;12.646;2023-05-13T04:39:36;3.65;;;1.50;;
78960;SDS011;68362;45.970;12.646;2023-05-13T04:40:38;2.10;;;1.73;;
78960;SDS011;68362;45.970;12.646;2023-05-13T04:41:40;3.30;;;1.65;;
78960;SDS011;68362;45.970;12.646;2023-05-13T04:42:42;1.80;;;1.25;;
78960;SDS011;68362;45.970;12.646;2023-05-13T04:43:44;3.75;;;1.85;;
78960;SDS011;68362;45.970;12.646;2023-05-13T04:44:46;4.82;;;1.75;;
78960;SDS011;68362;45.970;12.646;2023-05-13T04:45:48;2.20;;;1.55;;
78960;SDS011;68362;45.970;12.646;2023-05-13T04:46:50;2.42;;;1.65;;
78960;SDS011;68362;45.970;12.646;2023-05-13T04:47:52;2.22;;;1.60;;
78960;SDS011;68362;45.970;12.646;2023-05-13T04:48:58;2.22;;;1.75;;
78960;SDS011;68362;45.970;12.646;2023-05-13T04:50:00;2.25;;;1.67;;
78960;SDS011;68362;45.970;12.646;2023-05-13T04:51:03;2.00;;;1.63;;
78960;SDS011;68362;45.970;12.646;2023-05-13T04:52:06;1.60;;;1.50;;
78960;SDS011;68362;45.970;12.646;2023-05-13T04:53:08;2.65;;;1.88;;
78960;SDS011;68362;45.970;12.646;2023-05-13T04:54:10;1.77;;;1.58;;
78960;SDS011;68362;45.970;12.646;2023-05-13T04:55:12;2.28;;;1.50;;
78960;SDS011;68362;45.970;12.646;2023-05-13T04:56:14;2.38;;;1.70;;
78960;SDS011;68362;45.970;12.646;2023-05-13T04:57:17;2.28;;;1.95;;
78960;SDS011;68362;45.970;12.646;2023-05-13T04:58:19;2.40;;;1.70;;
78960;SDS011;68362;45.970;12.646;2023-05-13T04:59:21;2.20;;;1.60;;
78960;SDS011;68362;45.970;12.646;2023-05-13T05:00:24;1.90;;;1.50;;
78960;SDS011;68362;45.970;12.646;2023-05-13T05:01:26;1.80;;;1.50;;
78960;SDS011;68362;45.970;12.646;2023-05-13T05:02:28;2.55;;;1.80;;
78960;SDS011;68362;45.970;12.646;2023-05-13T05:03:33;2.78;;;1.30;;
78960;SDS011;68362;45.970;12.646;2023-05-13T05:04:35;2.47;;;1.55;;
78960;SDS011;68362;45.970;12.646;2023-05-13T05:05:37;1.60;;;1.50;;
78960;SDS011;68362;45.970;12.646;2023-05-13T05:06:39;3.55;;;1.67;;
78960;SDS011;68362;45.970;12.646;2023-05-13T05:07:41;2.95;;;1.38;;
78960;SDS011;68362;45.970;12.646;2023-05-13T05:08:43;2.67;;;1.98;;
78960;SDS011;68362;45.970;12.646;2023-05-13T05:09:45;3.08;;;1.45;;
78960;SDS011;68362;45.970;12.646;2023-05-13T05:10:47;2.42;;;2.05;;
78960;SDS011;68362;45.970;12.646;2023-05-13T05:11:49;2.10;;;1.35;;
78960;SDS011;68362;45.970;12.646;2023-05-13T05:12:52;1.58;;;1.20;;
78960;SDS011;68362;45.970;12.646;2023-05-13T05:13:53;1.88;;;1.38;;
78960;SDS011;68362;45.970;12.646;2023-05-13T05:14:56;1.83;;;1.30;;
78960;SDS011;68362;45.970;12.646;2023-05-13T05:15:58;1.80;;;1.50;;
78960;SDS011;68362;45.970;12.646;2023-05-13T05:17:00;2.20;;;1.30;;
78960;SDS011;68362;45.970;12.646;2023-05-13T05:18:02;2.17;;;1.60;;
78960;SDS011;68362;45.970;12.646;2023-05-13T05:19:07;1.92;;;1.50;;
78960;SDS011;68362;45.970;12.646;2023-05-13T05:20:09;1.75;;;1.45;;
78960;SDS011;68362;45.970;12.646;2023-05-13T05:21:12;3.13;;;1.20;;
78960;SDS011;68362;45.970;12.646;2023-05-13T05:22:14;2.17;;;1.48;;
78960;SDS011;68362;45.970;12.646;2023-05-13T05:23:16;2.67;;;1.65;;
78960;SDS011;68362;45.970;12.646;2023-05-13T05:24:18;2.40;;;1.25;;
78960;SDS011;68362;45.970;12.646;2023-05-13T05:25:20;1.85;;;1.23;;
78960;SDS011;68362;45.970;12.646;2023-05-13T05:26:22;3.30;;;1.40;;
78960;SDS011;68362;45.970;12.646;2023-05-13T05:27:24;2.58;;;1.55;;
78960;SDS011;68362;45.970;12.646;2023-05-13T05:28:26;1.95;;;1.25;;
78960;SDS011;68362;45.970;12.646;2023-05-13T05:29:28;1.92;;;1.38;;
78960;SDS011;68362;45.970;12.646;2023-05-13T05:30:30;2.45;;;1.42;;
78960;SDS011;68362;45.970;12.646;2023-05-13T05:31:40;2.28;;;1.27;;
78960;SDS011;68362;45.970;12.646;2023-05-13T05:32:42;1.70;;;1.20;;
78960;SDS011;68362;45.970;12.646;2023-05-13T05:33:45;1.77;;;1.30;;
78960;SDS011;68362;45.970;12.646;2023-05-13T05:34:46;1.52;;;1.20;;
78960;SDS011;68362;45.970;12.646;2023-05-13T05:35:48;1.95;;;1.35;;
78960;SDS011;68362;45.970;12.646;2023-05-13T05:36:50;2.35;;;1.42;;
78960;SDS011;68362;45.970;12.646;2023-05-13T05:37:53;1.27;;;1.17;;
78960;SDS011;68362;45.970;12.646;2023-05-13T05:38:55;2.00;;;1.40;;
78960;SDS011;68362;45.970;12.646;2023-05-13T05:39:56;3.53;;;1.42;;
78960;SDS011;68362;45.970;12.646;2023-05-13T05:40:58;1.52;;;1.33;;
78960;SDS011;68362;45.970;12.646;2023-05-13T05:42:01;1.95;;;1.30;;
78960;SDS011;68362;45.970;12.646;2023-05-13T05:43:03;1.60;;;1.20;;
78960;SDS011;68362;45.970;12.646;2023-05-13T05:44:05;2.10;;;1.45;;
78960;SDS011;68362;45.970;12.646;2023-05-13T05:45:07;2.00;;;1.63;;
78960;SDS011;68362;45.970;12.646;2023-05-13T05:46:10;2.17;;;1.33;;
78960;SDS011;68362;45.970;12.646;2023-05-13T05:47:12;2.97;;;1.48;;
78960;SDS011;68362;45.970;12.646;2023-05-13T05:48:14;4.00;;;1.17;;
78960;SDS011;68362;45.970;12.646;2023-05-13T05:49:16;3.00;;;1.60;;
78960;SDS011;68362;45.970;12.646;2023-05-13T05:50:18;2.20;;;1.60;;
78960;SDS011;68362;45.970;12.646;2023-05-13T05:51:21;2.90;;;1.48;;
78960;SDS011;68362;45.970;12.646;2023-05-13T05:52:22;3.55;;;1.42;;
78960;SDS011;68362;45.970;12.646;2023-05-13T05:53:24;2.47;;;1.40;;
78960;SDS011;68362;45.970;12.646;2023-05-13T05:54:27;3.05;;;1.40;;
78960;SDS011;68362;45.970;12.646;2023-05-13T05:55:29;1.70;;;1.40;;
78960;SDS011;68362;45.970;12.646;2023-05-13T05:56:32;3.15;;;1.40;;
78960;SDS011;68362;45.970;12.646;2023-05-13T05:57:34;2.33;;;1.75;;
78960;SDS011;68362;45.970;12.646;2023-05-13T05:58:36;1.70;;;1.48;;
78960;SDS011;68362;45.970;12.646;2023-05-13T05:59:38;2.47;;;1.70;;
78960;SDS011;68362;45.970;12.646;2023-05-13T06:00:40;1.75;;;1.33;;
78960;SDS011;68362;45.970;12.646;2023-05-13T06:01:42;1.95;;;1.60;;
78960;SDS011;68362;45.970;12.646;2023-05-13T06:02:44;3.60;;;1.70;;
78960;SDS011;68362;45.970;12.646;2023-05-13T06:03:47;3.67;;;2.08;;
78960;SDS011;68362;45.970;12.646;2023-05-13T06:04:51;2.63;;;1.77;;
78960;SDS011;68362;45.970;12.646;2023-05-13T06:05:53;2.35;;;1.50;;
78960;SDS011;68362;45.970;12.646;2023-05-13T06:06:55;2.03;;;1.30;;
78960;SDS011;68362;45.970;12.646;2023-05-13T06:07:57;2.35;;;1.50;;
78960;SDS011;68362;45.970;12.646;2023-05-13T06:08:59;2.15;;;1.70;;
78960;SDS011;68362;45.970;12.646;2023-05-13T06:10:02;1.40;;;1.30;;
78960;SDS011;68362;45.970;12.646;2023-05-13T06:11:07;2.58;;;2.20;;
78960;SDS011;68362;45.970;12.646;2023-05-13T06:12:09;2.22;;;1.60;;
78960;SDS011;68362;45.970;12.646;2023-05-13T06:13:10;6.68;;;1.95;;
78960;SDS011;68362;45.970;12.646;2023-05-13T06:14:12;2.72;;;1.48;;
78960;SDS011;68362;45.970;12.646;2023-05-13T06:15:15;2.65;;;1.60;;
78960;SDS011;68362;45.970;12.646;2023-05-13T06:16:17;2.42;;;1.67;;
78960;SDS011;68362;45.970;12.646;2023-05-13T06:17:19;2.72;;;1.75;;
78960;SDS011;68362;45.970;12.646;2023-05-13T06:18:21;2.35;;;1.58;;
78960;SDS011;68362;45.970;12.646;2023-05-13T06:19:23;6.50;;;1.75;;
78960;SDS011;68362;45.970;12.646;2023-05-13T06:20:25;1.90;;;1.20;;
78960;SDS011;68362;45.970;12.646;2023-05-13T06:21:27;2.55;;;1.70;;